createdAt,value
2019-02-08T00:00:01.236Z,0.00
2019-02-08T00:01:01.207Z,0.00
2019-02-08T00:02:01.145Z,0.00
2019-02-08T00:03:01.098Z,0.00
2019-02-08T00:04:01.092Z,0.00
2019-02-08T00:05:01.026Z,0.00
2019-02-08T00:06:00.960Z,0.00
2019-02-08T00:07:00.921Z,0.00
2019-02-08T00:08:00.899Z,0.00
2019-02-08T00:09:00.822Z,0.00
2019-02-08T00:10:00.784Z,0.00
2019-02-08T00:11:00.729Z,0.00
2019-02-08T00:12:00.689Z,0.00
2019-02-08T00:13:00.640Z,0.00
2019-02-08T00:14:00.590Z,0.00
2019-02-08T00:15:00.552Z,0.00
2019-02-08T00:16:00.505Z,0.00
2019-02-08T00:17:00.452Z,0.00
2019-02-08T00:18:00.413Z,0.00
2019-02-08T00:19:00.379Z,0.00
2019-02-08T00:20:00.425Z,0.00
2019-02-08T00:21:00.274Z,0.00
2019-02-08T00:22:00.224Z,0.00
2019-02-08T00:23:00.192Z,0.00
2019-02-08T00:24:00.131Z,0.00
2019-02-08T00:25:00.472Z,0.00
2019-02-08T00:26:00.039Z,0.00
2019-02-08T00:26:59.992Z,0.00
2019-02-08T00:28:00.001Z,0.00
2019-02-08T00:28:59.902Z,0.00
2019-02-08T00:29:59.866Z,0.00
2019-02-08T00:30:59.813Z,0.00
2019-02-08T00:31:59.765Z,0.00
2019-02-08T00:32:59.721Z,0.00
2019-02-08T00:33:59.672Z,0.00
2019-02-08T00:34:59.627Z,0.00
2019-02-08T00:35:59.579Z,0.00
2019-02-08T00:36:59.535Z,0.00
2019-02-08T00:37:59.487Z,0.00
2019-02-08T00:38:59.441Z,0.00
2019-02-08T00:39:59.395Z,0.00
2019-02-08T00:40:59.349Z,0.00
2019-02-08T00:41:59.305Z,0.00
2019-02-08T00:42:59.264Z,0.00
2019-02-08T00:43:59.211Z,0.00
2019-02-08T00:44:59.168Z,0.00
2019-02-08T00:45:59.120Z,0.00
2019-02-08T00:46:59.080Z,0.00
2019-02-08T00:47:59.029Z,0.00
2019-02-08T00:48:58.985Z,0.00
2019-02-08T00:49:58.935Z,0.00
2019-02-08T00:50:58.891Z,0.00
2019-02-08T00:51:58.843Z,0.00
2019-02-08T00:52:58.798Z,0.00
2019-02-08T00:53:58.751Z,0.00
2019-02-08T00:54:58.709Z,0.00
2019-02-08T00:55:58.661Z,0.00
2019-02-08T00:56:58.617Z,0.00
2019-02-08T00:57:58.570Z,0.00
2019-02-08T00:58:58.525Z,0.00
2019-02-08T00:59:58.477Z,0.00
2019-02-08T01:00:58.433Z,0.00
2019-02-08T01:01:58.382Z,0.00
2019-02-08T01:02:58.337Z,0.00
2019-02-08T01:03:58.290Z,0.00
2019-02-08T01:04:58.249Z,0.00
2019-02-08T01:05:58.198Z,0.00
2019-02-08T01:06:58.156Z,0.00
2019-02-08T01:07:58.111Z,0.00
2019-02-08T01:08:58.060Z,0.00
2019-02-08T01:09:58.017Z,0.00
2019-02-08T01:10:57.969Z,0.00
2019-02-08T01:11:57.927Z,0.00
2019-02-08T01:12:57.880Z,0.00
2019-02-08T01:13:57.830Z,0.00
2019-02-08T01:14:57.786Z,0.00
2019-02-08T01:15:57.738Z,0.00
2019-02-08T01:16:57.692Z,0.00
2019-02-08T01:17:57.648Z,0.00
2019-02-08T01:18:57.604Z,0.00
2019-02-08T01:19:57.554Z,0.00
2019-02-08T01:20:57.508Z,0.00
2019-02-08T01:21:57.475Z,0.00
2019-02-08T01:22:57.418Z,0.00
2019-02-08T01:23:57.372Z,0.00
2019-02-08T01:24:57.325Z,0.00
2019-02-08T01:25:57.280Z,0.00
2019-02-08T01:26:57.234Z,0.00
2019-02-08T01:27:57.187Z,0.00
2019-02-08T01:28:57.141Z,0.00
2019-02-08T01:29:57.099Z,0.00
2019-02-08T01:30:57.057Z,0.00
2019-02-08T01:31:57.002Z,0.00
2019-02-08T01:32:56.956Z,0.00
2019-02-08T01:33:56.914Z,0.00
2019-02-08T01:34:56.864Z,0.00
2019-02-08T01:35:56.825Z,0.00
2019-02-08T01:36:56.772Z,0.00
2019-02-08T01:37:56.732Z,0.00
2019-02-08T01:38:56.681Z,0.00
2019-02-08T01:39:56.638Z,0.00
2019-02-08T01:40:56.587Z,0.00
2019-02-08T01:41:56.547Z,0.00
2019-02-08T01:42:56.501Z,0.00
2019-02-08T01:43:56.451Z,0.00
2019-02-08T01:44:56.405Z,0.00
2019-02-08T01:45:56.359Z,0.00
2019-02-08T01:46:56.311Z,0.00
2019-02-08T01:48:02.537Z,0.00
2019-02-08T01:48:56.221Z,0.00
2019-02-08T01:49:56.177Z,0.00
2019-02-08T01:50:56.127Z,0.00
2019-02-08T01:51:56.080Z,0.00
2019-02-08T01:52:56.038Z,0.00
2019-02-08T01:53:55.993Z,0.00
2019-02-08T01:54:55.946Z,0.00
2019-02-08T01:55:55.898Z,0.00
2019-02-08T01:56:55.857Z,0.00
2019-02-08T01:57:55.809Z,0.00
2019-02-08T01:58:55.758Z,0.00
2019-02-08T01:59:55.712Z,0.00
2019-02-08T02:00:55.669Z,0.00
2019-02-08T02:01:55.619Z,0.00
2019-02-08T02:02:55.577Z,0.00
2019-02-08T02:03:55.529Z,0.00
2019-02-08T02:04:55.487Z,0.00
2019-02-08T02:05:55.441Z,0.00
2019-02-08T02:06:55.389Z,0.00
2019-02-08T02:07:55.346Z,0.00
2019-02-08T02:08:55.297Z,0.00
2019-02-08T02:09:55.251Z,0.00
2019-02-08T02:10:55.207Z,0.00
2019-02-08T02:11:55.159Z,0.00
2019-02-08T02:12:55.117Z,0.00
2019-02-08T02:13:55.068Z,0.00
2019-02-08T02:14:55.020Z,0.00
2019-02-08T02:15:54.974Z,0.00
2019-02-08T02:16:54.928Z,0.00
2019-02-08T02:17:54.885Z,0.00
2019-02-08T02:18:54.839Z,0.00
2019-02-08T02:19:54.795Z,0.00
2019-02-08T02:20:54.748Z,0.00
2019-02-08T02:21:54.699Z,0.00
2019-02-08T02:22:54.654Z,0.00
2019-02-08T02:23:56.102Z,0.00
2019-02-08T02:24:54.559Z,0.00
2019-02-08T02:25:54.513Z,0.00
2019-02-08T02:26:54.470Z,0.00
2019-02-08T02:27:54.437Z,0.00
2019-02-08T02:28:54.376Z,0.00
2019-02-08T02:29:54.332Z,0.00
2019-02-08T02:30:54.302Z,0.00
2019-02-08T02:31:54.237Z,0.00
2019-02-08T02:32:54.190Z,0.00
2019-02-08T02:33:54.145Z,0.00
2019-02-08T02:34:54.099Z,0.00
2019-02-08T02:35:54.053Z,0.00
2019-02-08T02:36:54.006Z,0.00
2019-02-08T02:37:53.960Z,0.00
2019-02-08T02:38:53.912Z,0.00
2019-02-08T02:39:53.868Z,0.00
2019-02-08T02:40:53.823Z,0.00
2019-02-08T02:41:53.773Z,0.00
2019-02-08T02:42:53.729Z,0.00
2019-02-08T02:43:53.684Z,0.00
2019-02-08T02:44:53.635Z,0.00
2019-02-08T02:45:53.587Z,0.00
2019-02-08T02:46:53.545Z,0.00
2019-02-08T02:47:53.522Z,0.00
2019-02-08T02:48:53.451Z,0.00
2019-02-08T02:49:53.408Z,0.00
2019-02-08T02:50:53.361Z,0.00
2019-02-08T02:51:53.319Z,0.00
2019-02-08T02:52:53.263Z,0.00
2019-02-08T02:53:53.218Z,0.00
2019-02-08T02:54:53.184Z,0.00
2019-02-08T02:55:53.129Z,0.00
2019-02-08T02:56:53.086Z,0.00
2019-02-08T02:57:53.033Z,0.00
2019-02-08T02:58:52.986Z,0.00
2019-02-08T02:59:52.939Z,0.00
2019-02-08T03:00:52.894Z,0.00
2019-02-08T03:01:52.849Z,0.00
2019-02-08T03:02:52.811Z,0.00
2019-02-08T03:03:52.762Z,0.00
2019-02-08T03:04:52.708Z,0.00
2019-02-08T03:05:52.666Z,0.00
2019-02-08T03:06:52.617Z,0.00
2019-02-08T03:07:52.570Z,0.00
2019-02-08T03:08:52.528Z,0.00
2019-02-08T03:09:52.479Z,0.00
2019-02-08T03:10:52.434Z,0.00
2019-02-08T03:11:52.392Z,0.00
2019-02-08T03:12:52.340Z,0.00
2019-02-08T03:13:52.297Z,0.00
2019-02-08T03:14:52.247Z,0.00
2019-02-08T03:15:52.201Z,0.00
2019-02-08T03:16:52.155Z,0.00
2019-02-08T03:17:52.110Z,0.00
2019-02-08T03:18:52.064Z,0.00
2019-02-08T03:19:52.025Z,0.00
2019-02-08T03:20:51.970Z,0.00
2019-02-08T03:21:51.978Z,0.00
2019-02-08T03:22:51.880Z,0.00
2019-02-08T03:23:51.832Z,0.00
2019-02-08T03:24:51.788Z,0.00
2019-02-08T03:25:51.737Z,0.00
2019-02-08T03:26:51.691Z,0.00
2019-02-08T03:27:51.645Z,0.00
2019-02-08T03:28:51.605Z,0.00
2019-02-08T03:29:51.552Z,0.00
2019-02-08T03:30:51.511Z,0.00
2019-02-08T03:31:51.462Z,0.00
2019-02-08T03:32:51.418Z,0.00
2019-02-08T03:33:51.366Z,0.00
2019-02-08T03:34:51.333Z,0.00
2019-02-08T03:35:51.282Z,0.00
2019-02-08T03:36:51.230Z,0.00
2019-02-08T03:37:51.195Z,0.00
2019-02-08T03:38:51.136Z,0.00
2019-02-08T03:39:51.088Z,0.00
2019-02-08T03:40:51.041Z,0.00
2019-02-08T03:41:50.995Z,0.00
2019-02-08T03:42:50.949Z,0.00
2019-02-08T03:43:50.902Z,0.00
2019-02-08T03:44:50.859Z,0.00
2019-02-08T03:45:50.813Z,0.00
2019-02-08T03:46:50.767Z,0.00
2019-02-08T03:47:50.722Z,0.00
2019-02-08T03:48:50.671Z,0.00
2019-02-08T03:49:50.629Z,0.00
2019-02-08T03:50:50.583Z,0.00
2019-02-08T03:51:50.541Z,0.00
2019-02-08T03:52:50.491Z,0.00
2019-02-08T03:53:50.441Z,0.00
2019-02-08T03:54:50.394Z,0.00
2019-02-08T03:55:58.034Z,0.00
2019-02-08T03:56:50.302Z,0.00
2019-02-08T03:57:50.256Z,0.00
2019-02-08T03:58:50.208Z,0.00
2019-02-08T03:59:50.161Z,0.00
2019-02-08T04:00:50.116Z,0.00
2019-02-08T04:01:50.069Z,0.00
2019-02-08T04:02:50.021Z,0.00
2019-02-08T04:03:49.976Z,0.00
2019-02-08T04:04:49.930Z,0.00
2019-02-08T04:05:49.882Z,0.00
2019-02-08T04:06:49.836Z,0.00
2019-02-08T04:07:49.792Z,0.00
2019-02-08T04:08:49.745Z,0.00
2019-02-08T04:09:49.697Z,0.00
2019-02-08T04:10:49.671Z,0.00
2019-02-08T04:11:49.605Z,0.00
2019-02-08T04:12:49.563Z,0.00
2019-02-08T04:13:49.514Z,0.00
2019-02-08T04:14:49.464Z,0.00
2019-02-08T04:15:49.424Z,0.00
2019-02-08T04:16:49.373Z,0.00
2019-02-08T04:17:49.327Z,0.00
2019-02-08T04:18:49.278Z,0.00
2019-02-08T04:19:49.234Z,0.00
2019-02-08T04:20:49.192Z,0.00
2019-02-08T04:21:49.141Z,0.00
2019-02-08T04:22:49.098Z,0.00
2019-02-08T04:23:49.047Z,0.00
2019-02-08T04:24:49.002Z,0.00
2019-02-08T04:25:48.954Z,0.00
2019-02-08T04:26:48.921Z,0.00
2019-02-08T04:27:48.871Z,0.00
2019-02-08T04:28:48.815Z,0.00
2019-02-08T04:29:48.770Z,0.00
2019-02-08T04:30:48.727Z,0.00
2019-02-08T04:31:48.680Z,0.00
2019-02-08T04:32:48.635Z,0.00
2019-02-08T04:33:48.584Z,0.00
2019-02-08T04:34:48.539Z,0.00
2019-02-08T04:35:48.495Z,0.00
2019-02-08T04:36:48.444Z,0.00
2019-02-08T04:37:48.399Z,0.00
2019-02-08T04:38:48.353Z,0.00
2019-02-08T04:39:48.307Z,0.00
2019-02-08T04:40:48.260Z,0.00
2019-02-08T04:41:48.216Z,0.00
2019-02-08T04:42:48.165Z,0.00
2019-02-08T04:43:48.118Z,0.00
2019-02-08T04:44:48.075Z,0.00
2019-02-08T04:45:48.027Z,0.00
2019-02-08T04:46:47.985Z,0.00
2019-02-08T04:47:47.937Z,0.00
2019-02-08T04:48:47.890Z,0.00
2019-02-08T04:49:47.842Z,0.00
2019-02-08T04:50:47.795Z,0.00
2019-02-08T04:51:47.754Z,0.00
2019-02-08T04:52:47.705Z,0.00
2019-02-08T04:53:47.653Z,0.00
2019-02-08T04:54:47.607Z,0.00
2019-02-08T04:55:47.562Z,0.00
2019-02-08T04:56:47.514Z,0.00
2019-02-08T04:57:47.469Z,0.00
2019-02-08T04:58:47.424Z,0.00
2019-02-08T04:59:47.378Z,0.00
2019-02-08T05:00:47.328Z,0.00
2019-02-08T05:01:47.285Z,0.00
2019-02-08T05:02:47.236Z,0.00
2019-02-08T05:03:47.192Z,0.00
2019-02-08T05:04:47.142Z,0.00
2019-02-08T05:05:47.099Z,0.00
2019-02-08T05:06:47.049Z,0.00
2019-02-08T05:07:47.003Z,0.00
2019-02-08T05:08:47.013Z,0.00
2019-02-08T05:09:46.908Z,0.00
2019-02-08T05:10:46.863Z,0.00
2019-02-08T05:11:46.825Z,0.00
2019-02-08T05:12:46.775Z,0.00
2019-02-08T05:13:46.723Z,0.00
2019-02-08T05:14:46.677Z,0.00
2019-02-08T05:15:46.632Z,0.00
2019-02-08T05:16:46.582Z,0.00
2019-02-08T05:17:46.537Z,0.00
2019-02-08T05:18:46.491Z,0.00
2019-02-08T05:19:46.442Z,0.00
2019-02-08T05:20:46.396Z,0.00
2019-02-08T05:21:46.373Z,0.00
2019-02-08T05:22:46.302Z,0.00
2019-02-08T05:23:46.256Z,0.00
2019-02-08T05:24:46.241Z,0.00
2019-02-08T05:25:46.172Z,0.00
2019-02-08T05:26:46.117Z,0.00
2019-02-08T05:27:46.070Z,0.00
2019-02-08T05:28:46.027Z,0.00
2019-02-08T05:29:45.979Z,0.00
2019-02-08T05:30:45.933Z,0.00
2019-02-08T05:31:45.885Z,0.00
2019-02-08T05:32:45.848Z,0.00
2019-02-08T05:33:45.794Z,0.00
2019-02-08T05:34:45.745Z,0.00
2019-02-08T05:35:45.699Z,0.00
2019-02-08T05:36:45.654Z,0.00
2019-02-08T05:37:45.603Z,0.00
2019-02-08T05:38:45.558Z,0.00
2019-02-08T05:39:45.520Z,0.00
2019-02-08T05:40:45.467Z,0.00
2019-02-08T05:41:45.418Z,0.00
2019-02-08T05:42:45.380Z,0.00
2019-02-08T05:43:45.327Z,0.00
2019-02-08T05:44:45.280Z,0.00
2019-02-08T05:45:45.229Z,0.00
2019-02-08T05:46:45.189Z,0.00
2019-02-08T05:47:45.139Z,0.00
2019-02-08T05:48:45.090Z,0.00
2019-02-08T05:49:45.047Z,0.00
2019-02-08T05:50:44.996Z,0.00
2019-02-08T05:51:44.949Z,0.00
2019-02-08T05:52:44.905Z,0.00
2019-02-08T05:53:44.858Z,0.00
2019-02-08T05:54:44.809Z,0.00
2019-02-08T05:55:44.768Z,0.00
2019-02-08T05:56:44.717Z,0.00
2019-02-08T05:57:44.675Z,0.00
2019-02-08T05:58:44.629Z,0.00
2019-02-08T05:59:44.576Z,0.00
2019-02-08T06:00:44.533Z,0.00
2019-02-08T06:01:44.488Z,0.00
2019-02-08T06:02:44.461Z,0.00
2019-02-08T06:03:44.395Z,0.00
2019-02-08T06:04:44.352Z,0.00
2019-02-08T06:05:44.296Z,0.00
2019-02-08T06:06:44.251Z,0.00
2019-02-08T06:07:44.208Z,0.00
2019-02-08T06:08:44.158Z,0.00
2019-02-08T06:09:44.113Z,0.00
2019-02-08T06:10:44.067Z,0.00
2019-02-08T06:11:44.020Z,0.00
2019-02-08T06:12:43.969Z,0.00
2019-02-08T06:13:43.923Z,0.00
2019-02-08T06:14:43.875Z,0.00
2019-02-08T06:15:43.831Z,0.00
2019-02-08T06:16:43.783Z,0.00
2019-02-08T06:17:43.736Z,0.00
2019-02-08T06:18:43.690Z,0.00
2019-02-08T06:19:43.644Z,0.00
2019-02-08T06:20:43.607Z,0.00
2019-02-08T06:21:43.550Z,0.00
2019-02-08T06:22:43.505Z,0.00
2019-02-08T06:23:43.457Z,0.00
2019-02-08T06:24:43.412Z,0.00
2019-02-08T06:25:43.363Z,0.00
2019-02-08T06:26:43.317Z,0.00
2019-02-08T06:27:43.269Z,0.00
2019-02-08T06:28:43.222Z,0.00
2019-02-08T06:29:43.174Z,0.00
2019-02-08T06:30:43.131Z,0.00
2019-02-08T06:31:43.082Z,0.00
2019-02-08T06:32:43.033Z,0.00
2019-02-08T06:33:42.990Z,0.00
2019-02-08T06:34:42.942Z,0.00
2019-02-08T06:35:42.893Z,0.00
2019-02-08T06:36:42.851Z,0.00
2019-02-08T06:37:44.525Z,0.00
2019-02-08T06:38:42.756Z,0.00
2019-02-08T06:39:43.209Z,0.00
2019-02-08T06:40:42.659Z,0.00
2019-02-08T06:41:42.615Z,0.00
2019-02-08T06:42:42.567Z,0.00
2019-02-08T06:43:42.521Z,0.00
2019-02-08T06:44:42.472Z,0.00
2019-02-08T06:45:42.427Z,0.00
2019-02-08T06:46:42.384Z,0.00
2019-02-08T06:47:42.331Z,0.00
2019-02-08T06:48:42.287Z,0.00
2019-02-08T06:49:42.238Z,0.00
2019-02-08T06:50:42.196Z,0.00
2019-02-08T06:51:42.149Z,0.00
2019-02-08T06:52:42.113Z,0.00
2019-02-08T06:53:42.050Z,0.00
2019-02-08T06:54:42.005Z,0.00
2019-02-08T06:55:41.964Z,0.00
2019-02-08T06:56:41.910Z,0.00
2019-02-08T06:57:41.863Z,0.00
2019-02-08T06:58:41.820Z,0.00
2019-02-08T06:59:41.770Z,0.00
2019-02-08T07:00:41.722Z,0.00
2019-02-08T07:01:41.677Z,0.00
2019-02-08T07:02:41.629Z,0.00
2019-02-08T07:03:41.581Z,0.00
2019-02-08T07:04:41.536Z,0.00
2019-02-08T07:05:41.487Z,0.00
2019-02-08T07:06:41.442Z,0.00
2019-02-08T07:07:41.395Z,0.00
2019-02-08T07:08:41.352Z,0.00
2019-02-08T07:09:41.301Z,0.00
2019-02-08T07:10:41.550Z,0.00
2019-02-08T07:11:41.206Z,0.00
2019-02-08T07:12:41.161Z,0.00
2019-02-08T07:13:41.111Z,0.00
2019-02-08T07:14:41.069Z,0.00
2019-02-08T07:15:41.019Z,0.00
2019-02-08T07:16:40.975Z,0.00
2019-02-08T07:17:40.925Z,0.00
2019-02-08T07:18:40.876Z,0.00
2019-02-08T07:19:40.834Z,0.00
2019-02-08T07:20:40.782Z,0.00
2019-02-08T07:21:40.740Z,0.00
2019-02-08T07:22:40.691Z,0.00
2019-02-08T07:23:40.646Z,0.00
2019-02-08T07:24:40.599Z,0.00
2019-02-08T07:25:40.555Z,0.00
2019-02-08T07:26:40.501Z,0.00
2019-02-08T07:27:40.454Z,0.00
2019-02-08T07:28:40.411Z,0.00
2019-02-08T07:29:40.361Z,0.00
2019-02-08T07:30:40.317Z,0.00
2019-02-08T07:31:40.270Z,0.00
2019-02-08T07:32:40.243Z,0.00
2019-02-08T07:33:40.187Z,0.00
2019-02-08T07:34:40.125Z,0.00
2019-02-08T07:35:40.079Z,0.00
2019-02-08T07:36:40.038Z,0.00
2019-02-08T07:37:39.984Z,0.00
2019-02-08T07:38:39.943Z,0.00
2019-02-08T07:39:39.911Z,0.00
2019-02-08T07:40:39.846Z,0.00
2019-02-08T07:41:39.798Z,0.00
2019-02-08T07:42:39.751Z,0.00
2019-02-08T07:43:39.704Z,0.00
2019-02-08T07:44:39.657Z,0.00
2019-02-08T07:45:39.611Z,0.00
2019-02-08T07:46:39.562Z,0.00
2019-02-08T07:47:39.517Z,0.00
2019-02-08T07:48:39.470Z,0.00
2019-02-08T07:49:39.423Z,0.00
2019-02-08T07:50:39.383Z,0.00
2019-02-08T07:51:39.330Z,0.00
2019-02-08T07:52:39.285Z,0.00
2019-02-08T07:53:39.235Z,0.00
2019-02-08T07:54:39.191Z,0.00
2019-02-08T07:55:39.142Z,0.00
2019-02-08T07:56:39.095Z,0.00
2019-02-08T07:57:39.047Z,0.00
2019-02-08T07:58:39.005Z,0.00
2019-02-08T07:59:38.953Z,0.00
2019-02-08T08:00:38.910Z,0.00
2019-02-08T08:01:38.860Z,0.00
2019-02-08T08:02:38.813Z,0.00
2019-02-08T08:03:38.768Z,0.00
2019-02-08T08:04:38.719Z,0.00
2019-02-08T08:05:38.675Z,0.00
2019-02-08T08:06:38.630Z,0.00
2019-02-08T08:07:38.586Z,0.00
2019-02-08T08:08:38.539Z,0.00
2019-02-08T08:09:38.486Z,0.00
2019-02-08T08:10:38.436Z,0.00
2019-02-08T08:11:38.389Z,0.00
2019-02-08T08:12:38.343Z,0.00
2019-02-08T08:13:38.296Z,0.00
2019-02-08T08:14:38.255Z,0.00
2019-02-08T08:15:38.206Z,0.00
2019-02-08T08:16:38.157Z,0.00
2019-02-08T08:17:38.108Z,0.00
2019-02-08T08:18:38.067Z,0.00
2019-02-08T08:19:38.013Z,0.00
2019-02-08T08:20:37.966Z,0.00
2019-02-08T08:21:37.924Z,0.00
2019-02-08T08:22:37.878Z,0.00
2019-02-08T08:23:37.825Z,0.00
2019-02-08T08:24:37.798Z,0.00
2019-02-08T08:25:37.734Z,0.00
2019-02-08T08:26:37.683Z,0.00
2019-02-08T08:27:37.638Z,0.00
2019-02-08T08:28:37.594Z,0.00
2019-02-08T08:29:37.552Z,0.00
2019-02-08T08:30:37.497Z,0.00
2019-02-08T08:31:37.448Z,0.00
2019-02-08T08:32:37.401Z,0.00
2019-02-08T08:33:37.358Z,0.00
2019-02-08T08:34:37.307Z,0.00
2019-02-08T08:35:37.264Z,0.00
2019-02-08T08:36:37.215Z,0.00
2019-02-08T08:37:37.168Z,0.00
2019-02-08T08:38:37.120Z,0.00
2019-02-08T08:39:37.077Z,0.00
2019-02-08T08:40:37.025Z,0.00
2019-02-08T08:41:36.985Z,0.00
2019-02-08T08:42:36.937Z,0.00
2019-02-08T08:43:36.892Z,0.00
2019-02-08T08:44:36.842Z,0.00
2019-02-08T08:45:36.792Z,0.00
2019-02-08T08:46:36.745Z,0.00
2019-02-08T08:47:36.699Z,5.63
2019-02-08T08:48:36.653Z,5.63
2019-02-08T08:49:36.603Z,5.63
2019-02-08T08:50:36.567Z,5.63
2019-02-08T08:51:36.513Z,5.63
2019-02-08T08:52:36.462Z,5.63
2019-02-08T08:53:36.416Z,11.25
2019-02-08T08:54:36.374Z,11.25
2019-02-08T08:55:42.076Z,11.25
2019-02-08T08:56:36.275Z,11.25
2019-02-08T08:57:36.230Z,16.88
2019-02-08T08:58:36.181Z,16.88
2019-02-08T08:59:36.138Z,16.88
2019-02-08T09:00:36.093Z,16.88
2019-02-08T09:01:36.040Z,22.50
2019-02-08T09:02:35.994Z,22.50
2019-02-08T09:03:35.943Z,28.13
2019-02-08T09:04:35.905Z,28.13
2019-02-08T09:05:35.873Z,28.13
2019-02-08T09:06:35.805Z,33.75
2019-02-08T09:07:35.755Z,33.75
2019-02-08T09:08:35.715Z,39.38
2019-02-08T09:09:35.668Z,39.38
2019-02-08T09:10:35.614Z,45.00
2019-02-08T09:11:35.569Z,45.00
2019-02-08T09:12:35.524Z,50.63
2019-02-08T09:13:35.499Z,56.25
2019-02-08T09:14:35.427Z,56.25
2019-02-08T09:15:35.380Z,67.50
2019-02-08T09:16:35.336Z,73.13
2019-02-08T09:17:35.289Z,95.63
2019-02-08T09:18:35.241Z,123.75
2019-02-08T09:19:35.195Z,146.25
2019-02-08T09:20:35.144Z,157.50
2019-02-08T09:21:35.097Z,180.00
2019-02-08T09:22:35.055Z,202.50
2019-02-08T09:23:35.008Z,129.38
2019-02-08T09:24:34.958Z,95.63
2019-02-08T09:25:34.911Z,95.63
2019-02-08T09:26:34.868Z,101.25
2019-02-08T09:27:34.817Z,168.75
2019-02-08T09:28:34.776Z,168.75
2019-02-08T09:29:34.725Z,106.88
2019-02-08T09:30:34.680Z,118.13
2019-02-08T09:31:34.647Z,191.25
2019-02-08T09:32:34.586Z,348.75
2019-02-08T09:33:34.544Z,405.00
2019-02-08T09:34:34.493Z,455.63
2019-02-08T09:35:34.450Z,495.00
2019-02-08T09:36:34.414Z,455.63
2019-02-08T09:37:34.359Z,495.00
2019-02-08T09:38:34.314Z,607.50
2019-02-08T09:39:34.262Z,545.63
2019-02-08T09:40:34.217Z,433.13
2019-02-08T09:41:34.170Z,551.25
2019-02-08T09:42:34.130Z,624.38
2019-02-08T09:43:34.084Z,652.50
2019-02-08T09:44:34.035Z,641.25
2019-02-08T09:45:33.991Z,658.13
2019-02-08T09:46:33.948Z,708.75
2019-02-08T09:47:33.899Z,731.25
2019-02-08T09:48:33.856Z,753.75
2019-02-08T09:49:33.813Z,753.75
2019-02-08T09:50:33.787Z,691.88
2019-02-08T09:51:33.722Z,450.00
2019-02-08T09:52:33.682Z,264.38
2019-02-08T09:53:33.689Z,281.25
2019-02-08T09:54:33.591Z,551.25
2019-02-08T09:55:33.547Z,1012.50
2019-02-08T09:56:33.515Z,1108.13
2019-02-08T09:57:33.460Z,1136.25
2019-02-08T09:58:33.417Z,1130.63
2019-02-08T09:59:33.375Z,1108.13
2019-02-08T10:00:33.333Z,1153.13
2019-02-08T10:01:33.289Z,1158.75
2019-02-08T10:02:33.249Z,1164.38
2019-02-08T10:03:33.204Z,1192.50
2019-02-08T10:04:33.163Z,1203.75
2019-02-08T10:05:33.126Z,1175.63
2019-02-08T10:06:33.085Z,1254.38
2019-02-08T10:07:33.044Z,1310.63
2019-02-08T10:08:33.000Z,1310.63
2019-02-08T10:09:32.963Z,1361.25
2019-02-08T10:10:32.925Z,1310.63
2019-02-08T10:11:32.893Z,1389.38
2019-02-08T10:12:32.842Z,1496.25
2019-02-08T10:13:32.800Z,1518.75
2019-02-08T10:14:32.766Z,1569.38
2019-02-08T10:15:32.723Z,1586.25
2019-02-08T10:16:32.687Z,1530.00
2019-02-08T10:17:32.649Z,1496.25
2019-02-08T10:18:32.613Z,1501.88
2019-02-08T10:19:32.572Z,1597.50
2019-02-08T10:20:32.543Z,1563.75
2019-02-08T10:21:32.500Z,1524.38
2019-02-08T10:22:32.463Z,1591.88
2019-02-08T10:23:32.428Z,1580.63
2019-02-08T10:24:32.395Z,1569.38
2019-02-08T10:25:32.372Z,1546.88
2019-02-08T10:26:32.316Z,1591.88
2019-02-08T10:27:32.283Z,1591.88
2019-02-08T10:28:32.254Z,1642.50
2019-02-08T10:29:32.216Z,1620.00
2019-02-08T10:30:32.176Z,1608.75
2019-02-08T10:31:32.145Z,1535.63
2019-02-08T10:32:32.104Z,1558.13
2019-02-08T10:33:32.094Z,1631.25
2019-02-08T10:34:32.823Z,1721.25
2019-02-08T10:35:32.011Z,1850.63
2019-02-08T10:36:31.969Z,1788.75
2019-02-08T10:37:31.934Z,1867.50
2019-02-08T10:38:31.903Z,1935.00
2019-02-08T10:39:31.871Z,1901.25
2019-02-08T10:40:31.831Z,1918.13
2019-02-08T10:41:31.799Z,1968.75
2019-02-08T10:42:31.775Z,1912.50
2019-02-08T10:43:31.729Z,1828.13
2019-02-08T10:44:31.696Z,1918.13
2019-02-08T10:45:31.669Z,1946.25
2019-02-08T10:46:31.633Z,1901.25
2019-02-08T10:47:31.606Z,1839.38
2019-02-08T10:48:31.568Z,1867.50
2019-02-08T10:49:31.534Z,1861.88
2019-02-08T10:50:31.516Z,1710.00
2019-02-08T10:51:31.466Z,1749.38
2019-02-08T10:52:31.455Z,1856.25
2019-02-08T10:53:31.406Z,1254.38
2019-02-08T10:54:31.370Z,585.00
2019-02-08T10:55:31.337Z,500.63
2019-02-08T10:56:31.306Z,489.38
2019-02-08T10:57:31.268Z,466.88
2019-02-08T10:58:31.235Z,455.63
2019-02-08T10:59:31.202Z,410.63
2019-02-08T11:00:31.163Z,354.38
2019-02-08T11:01:31.136Z,331.88
2019-02-08T11:02:31.099Z,320.63
2019-02-08T11:03:31.060Z,315.00
2019-02-08T11:04:31.022Z,320.63
2019-02-08T11:05:30.989Z,320.63
2019-02-08T11:06:30.950Z,326.25
2019-02-08T11:07:30.913Z,326.25
2019-02-08T11:08:30.871Z,320.63
2019-02-08T11:09:30.837Z,315.00
2019-02-08T11:10:30.799Z,309.38
2019-02-08T11:11:30.763Z,309.38
2019-02-08T11:12:30.719Z,309.38
2019-02-08T11:13:30.687Z,303.75
2019-02-08T11:14:30.643Z,303.75
2019-02-08T11:15:30.598Z,303.75
2019-02-08T11:16:30.562Z,303.75
2019-02-08T11:17:30.524Z,303.75
2019-02-08T11:18:30.478Z,303.75
2019-02-08T11:19:30.440Z,298.13
2019-02-08T11:20:30.402Z,298.13
2019-02-08T11:21:30.362Z,298.13
2019-02-08T11:22:30.315Z,298.13
2019-02-08T11:23:30.278Z,292.50
2019-02-08T11:24:30.234Z,298.13
2019-02-08T11:25:30.195Z,292.50
2019-02-08T11:26:30.153Z,292.50
2019-02-08T11:27:30.114Z,292.50
2019-02-08T11:28:30.074Z,292.50
2019-02-08T11:29:30.030Z,292.50
2019-02-08T11:30:29.984Z,292.50
2019-02-08T11:31:30.141Z,286.88
2019-02-08T11:32:42.832Z,286.88
2019-02-08T11:33:29.858Z,281.25
2019-02-08T11:34:29.812Z,281.25
2019-02-08T11:35:30.269Z,281.25
2019-02-08T11:36:29.732Z,281.25
2019-02-08T11:37:29.690Z,275.63
2019-02-08T11:38:29.662Z,275.63
2019-02-08T11:39:29.602Z,275.63
2019-02-08T11:40:29.564Z,270.00
2019-02-08T11:41:29.528Z,270.00
2019-02-08T11:42:29.473Z,270.00
2019-02-08T11:43:29.435Z,270.00
2019-02-08T11:44:29.386Z,275.63
2019-02-08T11:45:29.345Z,270.00
2019-02-08T11:46:29.303Z,270.00
2019-02-08T11:47:29.257Z,270.00
2019-02-08T11:48:29.224Z,270.00
2019-02-08T11:49:29.181Z,264.38
2019-02-08T11:50:29.131Z,264.38
2019-02-08T11:51:29.090Z,264.38
2019-02-08T11:52:29.058Z,264.38
2019-02-08T11:53:29.000Z,258.75
2019-02-08T11:54:28.966Z,258.75
2019-02-08T11:55:28.919Z,258.75
2019-02-08T11:56:30.055Z,253.13
2019-02-08T11:57:28.830Z,253.13
2019-02-08T11:58:28.794Z,258.75
2019-02-08T11:59:28.754Z,253.13
2019-02-08T12:00:28.701Z,253.13
2019-02-08T12:01:28.662Z,258.75
2019-02-08T12:02:28.619Z,258.75
2019-02-08T12:03:28.571Z,253.13
2019-02-08T12:04:28.527Z,253.13
2019-02-08T12:05:28.487Z,247.50
2019-02-08T12:06:28.446Z,247.50
2019-02-08T12:07:28.400Z,241.88
2019-02-08T12:08:28.352Z,241.88
2019-02-08T12:09:28.327Z,241.88
2019-02-08T12:10:28.268Z,241.88
2019-02-08T12:11:28.225Z,241.88
2019-02-08T12:12:28.187Z,241.88
2019-02-08T12:13:28.139Z,241.88
2019-02-08T12:14:28.101Z,236.25
2019-02-08T12:15:28.053Z,241.88
2019-02-08T12:16:28.015Z,241.88
2019-02-08T12:17:27.970Z,241.88
2019-02-08T12:18:27.935Z,241.88
2019-02-08T12:19:27.893Z,236.25
2019-02-08T12:20:27.843Z,236.25
2019-02-08T12:21:27.794Z,236.25
2019-02-08T12:22:27.757Z,236.25
2019-02-08T12:23:27.711Z,236.25
2019-02-08T12:24:27.663Z,236.25
2019-02-08T12:25:27.635Z,230.63
2019-02-08T12:26:27.576Z,230.63
2019-02-08T12:27:27.538Z,236.25
2019-02-08T12:28:27.496Z,236.25
2019-02-08T12:29:27.477Z,236.25
2019-02-08T12:30:27.404Z,236.25
2019-02-08T12:31:27.366Z,230.63
2019-02-08T12:32:27.322Z,230.63
2019-02-08T12:33:27.291Z,225.00
2019-02-08T12:34:27.244Z,225.00
2019-02-08T12:35:27.192Z,225.00
2019-02-08T12:36:27.154Z,225.00
2019-02-08T12:37:27.103Z,225.00
2019-02-08T12:38:27.086Z,219.38
2019-02-08T12:39:27.039Z,219.38
2019-02-08T12:40:26.979Z,219.38
2019-02-08T12:41:26.931Z,219.38
2019-02-08T12:42:26.888Z,219.38
2019-02-08T12:43:26.849Z,219.38
2019-02-08T12:44:26.804Z,219.38
2019-02-08T12:45:26.761Z,219.38
2019-02-08T12:46:26.717Z,219.38
2019-02-08T12:47:26.676Z,219.38
2019-02-08T12:48:26.635Z,213.75
2019-02-08T12:49:26.590Z,213.75
2019-02-08T12:50:26.547Z,213.75
2019-02-08T12:51:26.507Z,213.75
2019-02-08T12:52:26.471Z,208.13
2019-02-08T12:53:26.418Z,208.13
2019-02-08T12:54:26.376Z,202.50
2019-02-08T12:55:26.336Z,202.50
2019-02-08T12:56:26.310Z,202.50
2019-02-08T12:57:26.254Z,202.50
2019-02-08T12:58:26.763Z,196.88
2019-02-08T12:59:26.161Z,196.88